createdAt,value
2023-03-21T00:13:54.919Z,11.13
2023-03-21T01:19:50.658Z,9.46
2023-03-21T01:22:31.593Z,9.40
2023-03-21T01:25:22.260Z,9.32
2023-03-21T02:56:14.508Z,7.41
2023-03-21T02:58:49.217Z,7.40
2023-03-21T03:01:17.385Z,7.36
2023-03-21T03:03:48.517Z,7.35
2023-03-21T03:06:42.188Z,7.44
2023-03-21T03:09:31.871Z,7.61
2023-03-21T03:12:16.605Z,7.72
2023-03-21T03:15:04.870Z,7.76
2023-03-21T03:17:47.383Z,7.88
2023-03-21T03:20:18.957Z,8.01
2023-03-21T03:22:56.825Z,8.14
2023-03-21T03:25:47.983Z,8.26
2023-03-21T03:28:20.459Z,8.36
2023-03-21T03:31:04.951Z,8.47
2023-03-21T03:33:41.803Z,8.55
2023-03-21T03:36:28.408Z,8.57
2023-03-21T03:39:18.853Z,8.65
2023-03-21T03:42:27.625Z,8.80
2023-03-21T03:44:51.787Z,9.02
2023-03-21T03:47:33.758Z,9.24
2023-03-21T03:50:17.644Z,9.29
2023-03-21T03:53:26.218Z,9.21
2023-03-21T03:55:56.725Z,9.36
2023-03-21T03:58:43.064Z,9.50
2023-03-21T04:01:14.267Z,9.46
2023-03-21T04:03:49.768Z,9.48
2023-03-21T04:06:22.317Z,9.69
2023-03-21T04:08:53.760Z,9.66
2023-03-21T04:11:25.818Z,9.70
2023-03-21T04:13:53.994Z,9.69
2023-03-21T04:16:26.147Z,9.64
2023-03-21T04:18:53.190Z,9.63
2023-03-21T04:21:21.648Z,9.66
2023-03-21T04:23:48.449Z,9.68
2023-03-21T04:26:23.403Z,9.71
2023-03-21T04:29:12.795Z,9.64
2023-03-21T04:32:19.942Z,9.61
2023-03-21T04:35:03.922Z,9.53
2023-03-21T04:37:34.019Z,9.45
2023-03-21T04:40:07.084Z,9.45
2023-03-21T04:42:35.512Z,9.36
2023-03-21T04:45:02.841Z,9.33
2023-03-21T04:47:32.617Z,9.31
2023-03-21T04:49:59.873Z,9.22
2023-03-21T04:52:27.981Z,9.18
2023-03-21T04:54:58.919Z,9.11
2023-03-21T04:57:31.573Z,9.03
2023-03-21T05:00:00.432Z,8.99
2023-03-21T05:02:31.750Z,8.97
2023-03-21T05:04:59.077Z,8.93
2023-03-21T05:07:26.541Z,8.90
2023-03-21T05:09:54.639Z,8.90
2023-03-21T05:12:22.330Z,8.87
2023-03-21T05:14:51.495Z,8.80
2023-03-21T05:17:23.340Z,8.80
2023-03-21T05:20:03.613Z,8.83
2023-03-21T05:22:40.619Z,8.82
2023-03-21T05:25:11.787Z,8.82
2023-03-21T05:28:02.120Z,8.86
2023-03-21T05:30:31.069Z,8.81
2023-03-21T05:33:18.457Z,8.81
2023-03-21T05:35:52.331Z,8.78
2023-03-21T05:38:20.782Z,8.77
2023-03-21T05:40:54.058Z,8.75
2023-03-21T05:43:20.922Z,8.75
2023-03-21T05:45:51.105Z,8.80
2023-03-21T05:48:19.160Z,8.81
2023-03-21T05:51:04.295Z,8.84
2023-03-21T05:53:37.275Z,8.89
2023-03-21T05:56:06.810Z,8.94
2023-03-21T05:58:54.188Z,9.04
2023-03-21T06:01:22.698Z,9.09
2023-03-21T06:03:58.467Z,9.19
2023-03-21T06:06:30.497Z,9.30
2023-03-21T06:09:02.372Z,9.37
2023-03-21T06:11:36.587Z,9.45
2023-03-21T06:14:22.280Z,9.50
2023-03-21T06:17:09.424Z,9.52
2023-03-21T06:19:43.438Z,9.55
2023-03-21T06:22:16.802Z,9.55
2023-03-21T06:24:47.228Z,9.60
2023-03-21T06:27:19.297Z,9.65
2023-03-21T06:29:54.939Z,9.77
2023-03-21T06:32:24.400Z,9.87
2023-03-21T06:34:56.472Z,10.01
2023-03-21T06:37:23.333Z,10.09
2023-03-21T06:39:55.680Z,10.13
2023-03-21T06:42:39.648Z,10.20
2023-03-21T06:45:12.541Z,10.37
2023-03-21T06:47:41.891Z,10.67
2023-03-21T06:50:25.574Z,10.94
2023-03-21T06:52:53.402Z,11.15
2023-03-21T06:55:27.461Z,11.36
2023-03-21T06:57:56.819Z,11.61
2023-03-21T07:00:26.785Z,11.81
2023-03-21T07:02:54.982Z,12.00
2023-03-21T07:05:24.450Z,12.29
2023-03-21T07:07:54.068Z,12.39
2023-03-21T07:10:25.708Z,12.56
2023-03-21T07:13:01.408Z,12.83
2023-03-21T07:15:38.668Z,12.99
2023-03-21T07:18:08.668Z,13.20
2023-03-21T07:20:38.109Z,13.23
2023-03-21T07:23:04.852Z,13.46
2023-03-21T07:25:33.650Z,13.59
2023-03-21T07:28:01.644Z,13.71
2023-03-21T07:30:28.768Z,13.83
2023-03-21T07:32:58.025Z,14.00
2023-03-21T07:35:27.611Z,14.08
2023-03-21T07:37:55.533Z,14.04
2023-03-21T07:40:23.266Z,14.34
2023-03-21T07:43:00.319Z,14.40
2023-03-21T07:45:36.879Z,14.60
2023-03-21T07:48:11.075Z,14.64
2023-03-21T07:50:42.717Z,14.66
2023-03-21T07:53:10.522Z,14.76
2023-03-21T07:55:38.407Z,14.95
2023-03-21T07:58:07.836Z,14.97
2023-03-21T08:00:37.797Z,15.01
2023-03-21T08:03:10.707Z,15.15
2023-03-21T08:05:38.786Z,15.12
2023-03-21T08:08:06.298Z,15.27
2023-03-21T08:10:41.534Z,15.28
2023-03-21T08:13:13.650Z,15.47
2023-03-21T08:15:42.968Z,15.66
2023-03-21T08:18:11.319Z,15.89
2023-03-21T08:20:41.335Z,16.20
2023-03-21T08:23:08.332Z,16.79
2023-03-21T08:25:35.750Z,16.88
2023-03-21T08:28:04.952Z,16.86
2023-03-21T08:30:34.711Z,16.82
2023-03-21T08:33:02.489Z,16.54
2023-03-21T08:35:31.736Z,16.47
2023-03-21T08:37:58.925Z,16.55
2023-03-21T08:40:30.946Z,16.56
2023-03-21T08:42:59.183Z,16.65
2023-03-21T08:45:27.610Z,16.77
2023-03-21T08:47:57.668Z,16.80
2023-03-21T08:50:31.808Z,17.05
2023-03-21T08:52:58.701Z,17.45
2023-03-21T08:55:26.038Z,17.51
2023-03-21T08:57:52.870Z,17.78
2023-03-21T09:00:23.569Z,17.69
2023-03-21T09:02:54.643Z,17.72
2023-03-21T09:05:31.406Z,17.66
2023-03-21T09:08:01.846Z,17.50
2023-03-21T09:10:29.669Z,17.67
2023-03-21T09:12:56.932Z,17.57
2023-03-21T09:15:33.334Z,17.60
2023-03-21T09:18:13.438Z,17.57
2023-03-21T09:20:40.621Z,17.68
2023-03-21T09:23:07.598Z,17.43
2023-03-21T09:25:38.943Z,17.38
2023-03-21T09:28:06.685Z,17.11
2023-03-21T09:30:34.980Z,16.90
2023-03-21T09:33:06.743Z,16.98
2023-03-21T09:35:37.184Z,17.00
2023-03-21T09:38:05.754Z,16.91
2023-03-21T09:40:50.695Z,16.90
2023-03-21T09:43:38.173Z,16.99
2023-03-21T09:46:51.900Z,17.48
2023-03-21T09:49:25.672Z,17.53
2023-03-21T09:51:57.248Z,17.69
2023-03-21T09:54:28.151Z,17.71
2023-03-21T09:57:03.792Z,17.63
2023-03-21T09:59:40.298Z,17.91
2023-03-21T10:02:36.896Z,18.08
2023-03-21T10:05:18.307Z,17.88
2023-03-21T10:08:09.097Z,17.85
2023-03-21T10:10:39.825Z,17.72
2023-03-21T10:13:14.484Z,17.74
2023-03-21T10:15:41.730Z,18.20
2023-03-21T10:18:10.753Z,18.28
2023-03-21T10:20:39.474Z,18.35
2023-03-21T10:23:12.243Z,18.64
2023-03-21T10:25:58.586Z,19.02
2023-03-21T10:28:32.714Z,18.84
2023-03-21T10:31:11.192Z,18.61
2023-03-21T10:33:42.238Z,18.19
2023-03-21T10:36:12.344Z,18.21
2023-03-21T10:38:52.988Z,17.97
2023-03-21T10:41:21.300Z,18.09
2023-03-21T10:44:22.085Z,18.24
2023-03-21T10:46:56.096Z,18.69
2023-03-21T10:49:23.321Z,19.11
2023-03-21T10:51:55.816Z,19.05
2023-03-21T10:54:29.418Z,19.01
2023-03-21T10:57:14.873Z,18.93
2023-03-21T10:59:46.115Z,18.86
2023-03-21T11:02:28.170Z,18.80
2023-03-21T11:04:56.296Z,18.82
2023-03-21T11:07:33.071Z,18.71
2023-03-21T11:10:01.352Z,18.66
2023-03-21T11:12:31.286Z,18.70
2023-03-21T11:15:14.676Z,18.34
2023-03-21T11:17:45.724Z,18.05
2023-03-21T11:20:19.220Z,18.68
2023-03-21T11:22:55.503Z,19.12
2023-03-21T11:25:38.705Z,19.59
2023-03-21T11:28:14.412Z,20.06
2023-03-21T11:31:01.036Z,19.84
2023-03-21T11:33:33.299Z,19.39
2023-03-21T11:36:06.929Z,19.65
2023-03-21T11:38:38.037Z,19.85
2023-03-21T11:41:07.951Z,20.52
2023-03-21T11:43:43.052Z,20.58
2023-03-21T11:46:31.345Z,20.07
2023-03-21T11:49:02.151Z,20.42
2023-03-21T11:52:00.115Z,20.80
2023-03-21T11:54:50.979Z,21.14
2023-03-21T11:57:36.565Z,21.46
2023-03-21T12:00:28.834Z,20.59
2023-03-21T12:03:30.717Z,20.37
2023-03-21T12:06:03.950Z,20.18
2023-03-21T12:08:40.525Z,20.23
2023-03-21T12:11:27.571Z,20.41
2023-03-21T12:14:23.902Z,20.19
2023-03-21T12:17:27.144Z,20.32
2023-03-21T12:20:00.241Z,20.94
2023-03-21T12:23:09.468Z,21.02
2023-03-21T12:26:07.014Z,21.16
2023-03-21T12:28:52.844Z,20.72
2023-03-21T12:31:33.299Z,20.73
2023-03-21T12:34:43.125Z,20.85
2023-03-21T12:37:29.624Z,20.90
2023-03-21T12:40:22.007Z,20.47
2023-03-21T12:43:10.926Z,20.59
2023-03-21T12:45:47.236Z,20.68
2023-03-21T12:48:27.071Z,20.40
2023-03-21T12:50:54.980Z,20.58
2023-03-21T12:53:51.654Z,20.84
2023-03-21T12:56:28.207Z,20.89
2023-03-21T12:59:09.136Z,20.42
2023-03-21T13:02:00.510Z,20.07
2023-03-21T13:04:49.953Z,19.70
2023-03-21T13:07:20.258Z,19.69
2023-03-21T13:09:47.032Z,19.62
2023-03-21T13:12:26.515Z,19.74
2023-03-21T13:15:24.405Z,19.62
2023-03-21T13:17:59.864Z,19.80
2023-03-21T13:20:42.996Z,19.67
2023-03-21T13:23:09.923Z,19.61
2023-03-21T13:25:46.589Z,19.69
2023-03-21T13:28:19.771Z,19.62
2023-03-21T13:30:49.493Z,19.44
2023-03-21T13:33:38.346Z,19.60
2023-03-21T13:36:18.794Z,19.42
2023-03-21T13:38:50.644Z,19.51
2023-03-21T13:41:18.439Z,19.46
2023-03-21T13:44:02.042Z,19.27
2023-03-21T13:46:57.257Z,19.17
2023-03-21T13:49:31.250Z,19.17
2023-03-21T13:52:05.765Z,18.96
2023-03-21T13:54:46.176Z,18.90
2023-03-21T13:57:48.551Z,18.84
2023-03-21T14:00:31.671Z,18.64
2023-03-21T14:03:09.150Z,18.54
2023-03-21T14:05:41.004Z,18.49
2023-03-21T14:08:24.787Z,18.63
2023-03-21T14:11:00.918Z,18.77
2023-03-21T14:13:35.088Z,18.81
2023-03-21T14:16:12.827Z,19.06
2023-03-21T14:18:54.192Z,19.23
2023-03-21T14:21:31.692Z,19.12
2023-03-21T14:24:18.890Z,18.82
2023-03-21T14:26:49.114Z,18.71
2023-03-21T14:29:34.491Z,18.79
2023-03-21T14:32:02.316Z,18.82
2023-03-21T14:34:34.885Z,18.65
2023-03-21T14:37:03.065Z,18.64
2023-03-21T14:39:33.451Z,18.60
2023-03-21T14:42:06.791Z,18.53
2023-03-21T14:44:56.569Z,18.33
2023-03-21T14:47:29.286Z,18.35
2023-03-21T14:49:58.662Z,18.31
2023-03-21T14:52:35.655Z,18.13
2023-03-21T14:55:06.296Z,18.13
2023-03-21T14:57:42.628Z,18.07
2023-03-21T15:00:23.202Z,18.09
2023-03-21T15:02:54.728Z,17.98
2023-03-21T15:05:38.431Z,18.00
2023-03-21T15:08:20.350Z,17.90
2023-03-21T15:11:07.746Z,17.95
2023-03-21T15:13:49.191Z,17.95
2023-03-21T15:16:17.435Z,18.11
2023-03-21T15:18:45.462Z,18.30
2023-03-21T15:21:20.393Z,18.09
2023-03-21T15:23:48.858Z,18.37
2023-03-21T15:26:17.731Z,18.27
2023-03-21T15:28:49.132Z,18.18
2023-03-21T15:31:23.191Z,18.20
2023-03-21T15:33:55.619Z,18.13
2023-03-21T15:36:29.484Z,17.89
2023-03-21T15:38:56.876Z,17.91
2023-03-21T15:41:27.063Z,17.85
2023-03-21T15:44:04.465Z,17.58
2023-03-21T15:46:41.607Z,17.54
2023-03-21T15:49:21.001Z,17.51
2023-03-21T15:51:55.178Z,17.30
2023-03-21T15:54:48.065Z,17.14
2023-03-21T15:57:34.050Z,17.15
2023-03-21T16:00:13.337Z,17.03
2023-03-21T16:02:41.340Z,17.05
2023-03-21T16:05:34.998Z,16.99
2023-03-21T16:08:11.579Z,16.97
2023-03-21T16:10:38.916Z,17.05
2023-03-21T16:13:07.251Z,16.96
2023-03-21T16:15:34.118Z,16.91
2023-03-21T16:18:03.787Z,16.81
2023-03-21T16:20:41.632Z,16.90
2023-03-21T16:23:17.642Z,16.84
2023-03-21T16:25:47.214Z,16.91
2023-03-21T16:28:19.779Z,16.89
2023-03-21T16:30:50.646Z,16.90
2023-03-21T16:33:22.172Z,16.92
2023-03-21T16:36:01.362Z,16.97
2023-03-21T16:38:28.285Z,16.92
2023-03-21T16:41:17.889Z,16.82
2023-03-21T16:43:59.810Z,16.94
2023-03-21T16:46:29.012Z,16.86
2023-03-21T16:48:58.997Z,16.76
2023-03-21T16:51:35.153Z,16.67
2023-03-21T16:54:02.922Z,16.60
2023-03-21T16:56:50.845Z,16.52
2023-03-21T16:59:17.947Z,16.33
2023-03-21T17:01:53.602Z,16.14
2023-03-21T17:04:24.500Z,16.14
2023-03-21T17:06:54.976Z,15.96
2023-03-21T17:09:34.856Z,15.75
2023-03-21T17:12:06.692Z,15.57
2023-03-21T17:14:36.554Z,15.48
2023-03-21T17:17:06.444Z,15.35
2023-03-21T17:19:35.575Z,15.20
2023-03-21T17:22:02.943Z,15.09
2023-03-21T17:24:29.980Z,15.04
2023-03-21T17:26:58.979Z,14.91
2023-03-21T17:29:30.518Z,14.80
2023-03-21T17:31:57.711Z,14.65
2023-03-21T17:34:27.075Z,14.62
2023-03-21T17:36:53.925Z,14.45
2023-03-21T17:39:25.543Z,14.30
2023-03-21T17:41:55.000Z,14.18
2023-03-21T17:44:26.887Z,14.09
2023-03-21T17:46:56.573Z,14.00
2023-03-21T17:49:26.759Z,13.91
2023-03-21T17:51:56.513Z,13.91
2023-03-21T17:54:23.219Z,13.90
2023-03-21T17:56:50.072Z,13.73
2023-03-21T17:59:16.911Z,13.72
2023-03-21T18:01:47.611Z,13.60
2023-03-21T18:04:18.034Z,13.54
2023-03-21T18:06:51.336Z,13.46
2023-03-21T18:09:21.727Z,13.37
2023-03-21T18:11:51.459Z,13.27
2023-03-21T18:14:27.109Z,13.21
2023-03-21T18:17:02.813Z,13.08
2023-03-21T18:19:32.634Z,13.07
2023-03-21T18:21:59.509Z,12.95
2023-03-21T18:24:30.714Z,12.89
2023-03-21T18:26:58.732Z,12.82
2023-03-21T18:32:18.819Z,12.69
2023-03-21T18:34:45.712Z,12.70
2023-03-21T18:37:13.594Z,12.61
2023-03-21T18:39:45.283Z,12.50
2023-03-21T18:42:17.575Z,12.51
2023-03-21T18:44:48.386Z,12.52
2023-03-21T18:47:20.095Z,12.52
2023-03-21T18:52:42.573Z,12.49
2023-03-21T18:55:15.499Z,12.49
2023-03-21T18:57:42.696Z,12.54
2023-03-21T19:00:13.967Z,12.57
2023-03-21T19:02:46.783Z,12.53
2023-03-21T19:05:16.746Z,12.54
2023-03-21T19:07:45.735Z,12.53
2023-03-21T19:10:19.628Z,12.56
2023-03-21T19:12:55.347Z,12.60
2023-03-21T19:15:24.412Z,12.57
2023-03-21T19:18:50.026Z,12.59
2023-03-21T19:23:59.291Z,12.61
2023-03-21T19:26:25.274Z,12.60
2023-03-21T19:28:54.106Z,12.64
2023-03-21T19:31:24.888Z,12.69
2023-03-21T19:33:51.901Z,12.69
2023-03-21T19:36:22.927Z,12.68
2023-03-21T19:38:51.139Z,12.65
2023-03-21T19:41:22.876Z,12.67
2023-03-21T19:43:55.071Z,12.66
2023-03-21T19:46:25.500Z,12.67
2023-03-21T19:48:56.880Z,12.66
2023-03-21T19:51:29.108Z,12.64
2023-03-21T19:53:59.851Z,12.64
2023-03-21T19:56:27.662Z,12.67
2023-03-21T19:58:58.004Z,12.65
2023-03-21T20:01:27.744Z,12.67
2023-03-21T20:03:54.604Z,12.67
2023-03-21T20:06:27.010Z,12.61
2023-03-21T20:09:34.173Z,12.55
2023-03-21T20:11:43.932Z,12.47
2023-03-21T20:14:14.615Z,12.38
2023-03-21T20:16:44.719Z,12.30
2023-03-21T20:19:13.453Z,12.18
2023-03-21T20:21:49.183Z,12.08
2023-03-21T20:24:21.487Z,12.05
2023-03-21T20:26:53.745Z,11.93
2023-03-21T20:30:07.895Z,11.92
2023-03-21T20:32:13.315Z,11.83
2023-03-21T20:34:44.247Z,11.81
2023-03-21T20:37:12.419Z,11.76
2023-03-21T20:39:40.158Z,11.74
2023-03-21T20:42:09.501Z,11.71
2023-03-21T20:44:58.828Z,11.66
2023-03-21T20:47:25.075Z,11.67
2023-03-21T20:49:54.051Z,11.63
2023-03-21T20:55:16.353Z,11.51
2023-03-21T20:57:43.148Z,11.45
2023-03-21T21:00:17.183Z,11.42
2023-03-21T21:02:48.670Z,11.39
2023-03-21T21:05:28.712Z,11.38
2023-03-21T21:07:56.911Z,11.36
2023-03-21T21:10:23.735Z,11.31
2023-03-21T21:12:50.572Z,11.27
2023-03-21T21:15:21.347Z,11.22
2023-03-21T21:18:05.361Z,11.19
2023-03-21T21:20:36.767Z,11.17
2023-03-21T21:23:14.296Z,11.16
2023-03-21T21:25:41.037Z,11.15
2023-03-21T21:28:09.723Z,11.13
2023-03-21T21:30:43.840Z,11.16
2023-03-21T21:33:15.970Z,11.16
2023-03-21T21:35:49.386Z,11.19
2023-03-21T21:38:26.174Z,11.20
2023-03-21T21:41:01.876Z,11.24
2023-03-21T21:43:31.160Z,11.24
2023-03-21T21:45:58.068Z,11.31
2023-03-21T21:48:26.067Z,11.35
2023-03-21T21:50:54.431Z,11.40
2023-03-21T21:53:29.482Z,11.42
2023-03-21T21:55:58.911Z,11.44
2023-03-21T21:58:33.303Z,11.44
2023-03-21T22:01:01.848Z,11.43
2023-03-21T22:03:36.496Z,11.46
2023-03-21T22:06:04.613Z,11.48
2023-03-21T22:08:39.487Z,11.52
2023-03-21T22:11:09.000Z,11.56
2023-03-21T22:13:35.679Z,11.58
2023-03-21T22:16:03.666Z,11.61
2023-03-21T22:18:36.431Z,11.62
2023-03-21T22:21:07.031Z,11.61
2023-03-21T22:23:41.577Z,11.55
2023-03-21T22:26:09.194Z,11.53
2023-03-21T22:28:37.175Z,11.48
2023-03-21T22:31:14.150Z,11.39
2023-03-21T22:33:45.935Z,11.27
2023-03-21T22:36:16.029Z,11.24
2023-03-21T22:38:44.022Z,11.18
2023-03-21T22:41:10.985Z,11.09
2023-03-21T22:43:37.808Z,11.01
2023-03-21T22:46:07.505Z,10.94
2023-03-21T22:48:34.841Z,10.87
2023-03-21T22:51:01.581Z,10.78
2023-03-21T22:53:28.587Z,10.78
2023-03-21T22:55:56.856Z,10.65
2023-03-21T22:58:26.788Z,10.53
2023-03-21T23:01:01.980Z,10.47
2023-03-21T23:03:31.719Z,10.38
2023-03-21T23:06:04.092Z,10.42
2023-03-21T23:08:32.881Z,10.36
2023-03-21T23:10:59.536Z,10.31
2023-03-21T23:13:34.544Z,10.32
2023-03-21T23:16:07.805Z,10.24
2023-03-21T23:18:39.146Z,10.21
2023-03-21T23:21:17.987Z,10.15
2023-03-21T23:23:49.928Z,10.09
2023-03-21T23:26:19.937Z,10.06
2023-03-21T23:28:48.262Z,10.01
2023-03-21T23:31:18.697Z,9.94
2023-03-21T23:33:49.391Z,9.91
2023-03-21T23:36:17.474Z,9.88
2023-03-21T23:38:44.939Z,9.80
2023-03-21T23:41:14.539Z,9.78
2023-03-21T23:43:42.701Z,9.78
2023-03-21T23:46:10.260Z,9.70
2023-03-21T23:48:38.369Z,9.62
2023-03-21T23:51:12.812Z,9.58
2023-03-21T23:53:39.630Z,9.59
2023-03-21T23:56:18.859Z,9.57
2023-03-21T23:58:50.099Z,9.58
